sensor_id;sensor_type;location;lat;lon;timestamp;pressure;altitude;pressure_sealevel;temperature;humidity
56831;BME280;42713;42.676;23.352;2023-08-01T00:00:31;94462.09;;;21.29;59.14
56831;BME280;42713;42.676;23.352;2023-08-01T00:02:57;94467.41;;;21.29;59.10
56831;BME280;42713;42.676;23.352;2023-08-01T00:05:23;94466.66;;;21.29;59.24
56831;BME280;42713;42.676;23.352;2023-08-01T00:07:48;94472.41;;;21.31;58.80
56831;BME280;42713;42.676;23.352;2023-08-01T00:10:14;94463.97;;;21.29;59.39
56831;BME280;42713;42.676;23.352;2023-08-01T00:12:42;94461.78;;;21.22;59.24
56831;BME280;42713;42.676;23.352;2023-08-01T00:15:09;94460.22;;;21.21;59.19
56831;BME280;42713;42.676;23.352;2023-08-01T00:17:35;94463.97;;;21.20;58.85
56831;BME280;42713;42.676;23.352;2023-08-01T00:20:04;94455.22;;;21.11;59.34
56831;BME280;42713;42.676;23.352;2023-08-01T00:22:30;94464.34;;;21.01;59.67
56831;BME280;42713;42.676;23.352;2023-08-01T00:24:55;94462.44;;;20.93;59.87
56831;BME280;42713;42.676;23.352;2023-08-01T00:27:21;94462.13;;;20.86;60.11
56831;BME280;42713;42.676;23.352;2023-08-01T00:29:46;94461.34;;;20.76;60.23
56831;BME280;42713;42.676;23.352;2023-08-01T00:32:13;94456.50;;;20.78;60.21
56831;BME280;42713;42.676;23.352;2023-08-01T00:34:39;94462.78;;;20.74;60.77
56831;BME280;42713;42.676;23.352;2023-08-01T00:37:04;94464.59;;;20.73;60.60
56831;BME280;42713;42.676;23.352;2023-08-01T00:39:30;94456.47;;;20.69;60.72
56831;BME280;42713;42.676;23.352;2023-08-01T00:41:56;94457.25;;;20.70;60.43
56831;BME280;42713;42.676;23.352;2023-08-01T00:44:22;94459.59;;;20.72;60.71
56831;BME280;42713;42.676;23.352;2023-08-01T00:46:47;94457.88;;;20.67;60.78
56831;BME280;42713;42.676;23.352;2023-08-01T00:49:13;94462.59;;;20.70;60.81
56831;BME280;42713;42.676;23.352;2023-08-01T00:51:39;94461.50;;;20.80;60.51
56831;BME280;42713;42.676;23.352;2023-08-01T00:54:05;94452.75;;;20.79;59.88
56831;BME280;42713;42.676;23.352;2023-08-01T00:56:33;94448.63;;;20.73;59.97
56831;BME280;42713;42.676;23.352;2023-08-01T00:59:00;94449.72;;;20.72;60.28
56831;BME280;42713;42.676;23.352;2023-08-01T01:01:25;94446.63;;;20.70;60.50
56831;BME280;42713;42.676;23.352;2023-08-01T01:03:51;94443.53;;;20.77;60.04
56831;BME280;42713;42.676;23.352;2023-08-01T01:06:21;94448.69;;;20.82;60.05
56831;BME280;42713;42.676;23.352;2023-08-01T01:08:49;94453.38;;;20.85;59.50
56831;BME280;42713;42.676;23.352;2023-08-01T01:11:15;94446.16;;;20.86;59.41
56831;BME280;42713;42.676;23.352;2023-08-01T01:13:40;94443.81;;;20.75;59.58
56831;BME280;42713;42.676;23.352;2023-08-01T01:16:06;94441.91;;;20.67;59.82
56831;BME280;42713;42.676;23.352;2023-08-01T01:18:31;94437.69;;;20.66;59.96
56831;BME280;42713;42.676;23.352;2023-08-01T01:20:56;94442.69;;;20.67;59.84
56831;BME280;42713;42.676;23.352;2023-08-01T01:23:22;94435.03;;;20.66;60.19
56831;BME280;42713;42.676;23.352;2023-08-01T01:25:51;94431.91;;;20.73;59.76
56831;BME280;42713;42.676;23.352;2023-08-01T01:28:17;94428.94;;;20.74;59.55
56831;BME280;42713;42.676;23.352;2023-08-01T01:30:44;94434.13;;;20.79;59.49
56831;BME280;42713;42.676;23.352;2023-08-01T01:33:11;94425.19;;;20.84;58.59
56831;BME280;42713;42.676;23.352;2023-08-01T01:35:37;94426.44;;;20.87;58.58
56831;BME280;42713;42.676;23.352;2023-08-01T01:38:03;94427.53;;;20.86;58.45
56831;BME280;42713;42.676;23.352;2023-08-01T01:40:32;94437.25;;;20.81;58.59
56831;BME280;42713;42.676;23.352;2023-08-01T01:42:59;94428.47;;;20.81;58.48
56831;BME280;42713;42.676;23.352;2023-08-01T01:45:24;94424.41;;;20.83;58.43
56831;BME280;42713;42.676;23.352;2023-08-01T01:47:50;94419.22;;;20.87;58.29
56831;BME280;42713;42.676;23.352;2023-08-01T01:50:15;94421.25;;;20.90;58.12
56831;BME280;42713;42.676;23.352;2023-08-01T01:52:41;94425.81;;;20.90;58.27
56831;BME280;42713;42.676;23.352;2023-08-01T01:55:07;94441.78;;;20.90;57.98
56831;BME280;42713;42.676;23.352;2023-08-01T01:57:33;94440.38;;;20.83;58.32
56831;BME280;42713;42.676;23.352;2023-08-01T02:00:02;94446.63;;;20.70;58.13
56831;BME280;42713;42.676;23.352;2023-08-01T02:02:27;94442.22;;;20.65;58.37
56831;BME280;42713;42.676;23.352;2023-08-01T02:04:53;94429.53;;;20.62;58.56
56831;BME280;42713;42.676;23.352;2023-08-01T02:07:18;94438.94;;;20.60;58.31
56831;BME280;42713;42.676;23.352;2023-08-01T02:09:44;94439.72;;;20.51;58.63
56831;BME280;42713;42.676;23.352;2023-08-01T02:12:09;94427.66;;;20.45;58.64
56831;BME280;42713;42.676;23.352;2023-08-01T02:14:36;94429.69;;;20.48;58.77
56831;BME280;42713;42.676;23.352;2023-08-01T02:17:02;94426.44;;;20.51;59.11
56831;BME280;42713;42.676;23.352;2023-08-01T02:19:27;94436.13;;;20.56;59.42
56831;BME280;42713;42.676;23.352;2023-08-01T02:21:53;94427.97;;;20.52;59.87
56831;BME280;42713;42.676;23.352;2023-08-01T02:24:19;94441.13;;;20.58;59.73
56831;BME280;42713;42.676;23.352;2023-08-01T02:26:44;94434.25;;;20.57;60.78
56831;BME280;42713;42.676;23.352;2023-08-01T02:29:10;94430.00;;;20.56;60.53
56831;BME280;42713;42.676;23.352;2023-08-01T02:31:35;94435.34;;;20.56;60.68
56831;BME280;42713;42.676;23.352;2023-08-01T02:34:01;94423.91;;;20.55;60.80
56831;BME280;42713;42.676;23.352;2023-08-01T02:36:26;94427.81;;;20.58;60.86
56831;BME280;42713;42.676;23.352;2023-08-01T02:38:52;94424.41;;;20.57;59.39
56831;BME280;42713;42.676;23.352;2023-08-01T02:41:17;94428.59;;;20.58;59.01
56831;BME280;42713;42.676;23.352;2023-08-01T02:43:43;94428.75;;;20.53;58.62
56831;BME280;42713;42.676;23.352;2023-08-01T02:46:08;94424.84;;;20.50;58.48
56831;BME280;42713;42.676;23.352;2023-08-01T02:48:34;94427.81;;;20.49;58.10
56831;BME280;42713;42.676;23.352;2023-08-01T02:51:01;94423.59;;;20.48;58.17
56831;BME280;42713;42.676;23.352;2023-08-01T02:53:27;94427.97;;;20.44;58.92
56831;BME280;42713;42.676;23.352;2023-08-01T02:55:52;94431.13;;;20.46;58.81
56831;BME280;42713;42.676;23.352;2023-08-01T02:58:17;94427.66;;;20.45;58.82
56831;BME280;42713;42.676;23.352;2023-08-01T03:00:43;94436.72;;;20.44;58.94
56831;BME280;42713;42.676;23.352;2023-08-01T03:03:09;94439.38;;;20.44;58.83
56831;BME280;42713;42.676;23.352;2023-08-01T03:05:37;94437.81;;;20.43;59.20
56831;BME280;42713;42.676;23.352;2023-08-01T03:08:04;94428.44;;;20.37;59.83
56831;BME280;42713;42.676;23.352;2023-08-01T03:10:29;94430.47;;;20.31;60.03
56831;BME280;42713;42.676;23.352;2023-08-01T03:12:55;94438.59;;;20.26;60.37
56831;BME280;42713;42.676;23.352;2023-08-01T03:15:20;94433.41;;;20.21;61.03
56831;BME280;42713;42.676;23.352;2023-08-01T03:17:46;94422.94;;;20.16;61.29
56831;BME280;42713;42.676;23.352;2023-08-01T03:20:12;94424.63;;;20.12;61.52
56831;BME280;42713;42.676;23.352;2023-08-01T03:22:40;94423.38;;;20.09;62.43
56831;BME280;42713;42.676;23.352;2023-08-01T03:25:07;94431.97;;;20.06;63.75
56831;BME280;42713;42.676;23.352;2023-08-01T03:27:33;94435.41;;;19.98;62.09
56831;BME280;42713;42.676;23.352;2023-08-01T03:29:59;94440.38;;;19.90;62.38
56831;BME280;42713;42.676;23.352;2023-08-01T03:32:25;94440.38;;;19.90;63.31
56831;BME280;42713;42.676;23.352;2023-08-01T03:34:50;94447.13;;;19.88;63.36
56831;BME280;42713;42.676;23.352;2023-08-01T03:37:16;94450.06;;;19.86;63.73
56831;BME280;42713;42.676;23.352;2023-08-01T03:39:41;94443.97;;;19.86;63.85
56831;BME280;42713;42.676;23.352;2023-08-01T03:42:07;94447.53;;;19.81;64.03
56831;BME280;42713;42.676;23.352;2023-08-01T03:44:33;94450.78;;;19.78;64.16
56831;BME280;42713;42.676;23.352;2023-08-01T03:46:59;94457.81;;;19.74;64.36
56831;BME280;42713;42.676;23.352;2023-08-01T03:49:24;94458.91;;;19.73;64.29
56831;BME280;42713;42.676;23.352;2023-08-01T03:51:50;94467.97;;;19.72;63.93
56831;BME280;42713;42.676;23.352;2023-08-01T03:54:15;94453.88;;;19.71;63.91
56831;BME280;42713;42.676;23.352;2023-08-01T03:56:41;94451.84;;;19.68;63.93
56831;BME280;42713;42.676;23.352;2023-08-01T03:59:13;94460.91;;;19.67;63.64
56831;BME280;42713;42.676;23.352;2023-08-01T04:01:38;94461.50;;;19.64;63.76
56831;BME280;42713;42.676;23.352;2023-08-01T04:04:04;94466.34;;;19.62;63.95
56831;BME280;42713;42.676;23.352;2023-08-01T04:06:29;94456.34;;;19.59;64.05
56831;BME280;42713;42.676;23.352;2023-08-01T04:08:55;94461.47;;;19.55;64.14
56831;BME280;42713;42.676;23.352;2023-08-01T04:11:22;94463.94;;;19.52;64.31
56831;BME280;42713;42.676;23.352;2023-08-01T04:13:47;94466.78;;;19.55;64.32
56831;BME280;42713;42.676;23.352;2023-08-01T04:16:13;94463.94;;;19.52;64.43
56831;BME280;42713;42.676;23.352;2023-08-01T04:18:38;94468.19;;;19.53;64.19
56831;BME280;42713;42.676;23.352;2023-08-01T04:21:03;94468.66;;;19.55;64.00
56831;BME280;42713;42.676;23.352;2023-08-01T04:23:29;94468.66;;;19.55;64.05
56831;BME280;42713;42.676;23.352;2023-08-01T04:25:55;94468.97;;;19.53;64.32
56831;BME280;42713;42.676;23.352;2023-08-01T04:28:20;94469.44;;;19.55;64.35
56831;BME280;42713;42.676;23.352;2023-08-01T04:30:52;94472.09;;;19.55;64.46
56831;BME280;42713;42.676;23.352;2023-08-01T04:33:18;94470.09;;;19.61;64.26
56831;BME280;42713;42.676;23.352;2023-08-01T04:35:43;94471.38;;;19.64;64.00
56831;BME280;42713;42.676;23.352;2023-08-01T04:38:09;94473.41;;;19.67;64.07
56831;BME280;42713;42.676;23.352;2023-08-01T04:40:36;94469.34;;;19.69;63.74
56831;BME280;42713;42.676;23.352;2023-08-01T04:43:02;94477.03;;;19.71;63.68
56831;BME280;42713;42.676;23.352;2023-08-01T04:45:27;94474.38;;;19.71;63.52
56831;BME280;42713;42.676;23.352;2023-08-01T04:47:53;94468.44;;;19.74;63.84
56831;BME280;42713;42.676;23.352;2023-08-01T04:50:19;94461.41;;;19.78;63.73
56831;BME280;42713;42.676;23.352;2023-08-01T04:52:44;94453.59;;;19.82;63.31
56831;BME280;42713;42.676;23.352;2023-08-01T04:55:10;94456.16;;;19.87;63.28
56831;BME280;42713;42.676;23.352;2023-08-01T04:57:36;94457.09;;;19.91;63.11
56831;BME280;42713;42.676;23.352;2023-08-01T05:00:02;94467.91;;;19.95;63.01
56831;BME280;42713;42.676;23.352;2023-08-01T05:02:29;94460.41;;;19.97;62.47
56831;BME280;42713;42.676;23.352;2023-08-01T05:04:54;94453.88;;;20.03;62.48
56831;BME280;42713;42.676;23.352;2023-08-01T05:07:20;94463.59;;;20.08;61.83
56831;BME280;42713;42.676;23.352;2023-08-01T05:09:46;94459.53;;;20.10;62.02
56831;BME280;42713;42.676;23.352;2023-08-01T05:12:11;94456.22;;;20.13;61.49
56831;BME280;42713;42.676;23.352;2023-08-01T05:14:37;94457.78;;;20.14;61.65
56831;BME280;42713;42.676;23.352;2023-08-01T05:17:02;94466.13;;;20.21;61.18
56831;BME280;42713;42.676;23.352;2023-08-01T05:19:28;94467.38;;;20.24;61.26
56831;BME280;42713;42.676;23.352;2023-08-01T05:21:53;94471.75;;;20.29;61.45
56831;BME280;42713;42.676;23.352;2023-08-01T05:24:20;94460.50;;;20.32;60.72
56831;BME280;42713;42.676;23.352;2023-08-01T05:26:46;94471.00;;;20.37;60.06
56831;BME280;42713;42.676;23.352;2023-08-01T05:29:11;94458.16;;;20.39;59.79
56831;BME280;42713;42.676;23.352;2023-08-01T05:31:36;94459.91;;;20.44;58.81
56831;BME280;42713;42.676;23.352;2023-08-01T05:34:02;94458.00;;;20.35;59.29
56831;BME280;42713;42.676;23.352;2023-08-01T05:36:27;94462.69;;;20.38;59.07
56831;BME280;42713;42.676;23.352;2023-08-01T05:38:53;94468.66;;;20.44;59.28
56831;BME280;42713;42.676;23.352;2023-08-01T05:41:18;94461.94;;;20.47;59.21
56831;BME280;42713;42.676;23.352;2023-08-01T05:43:47;94466.94;;;20.48;59.32
56831;BME280;42713;42.676;23.352;2023-08-01T05:46:13;94468.66;;;20.53;59.27
56831;BME280;42713;42.676;23.352;2023-08-01T05:48:38;94463.81;;;20.55;58.49
56831;BME280;42713;42.676;23.352;2023-08-01T05:51:04;94466.03;;;20.62;58.60
56831;BME280;42713;42.676;23.352;2023-08-01T05:53:29;94460.53;;;20.67;59.05
56831;BME280;42713;42.676;23.352;2023-08-01T05:55:55;94454.47;;;20.75;59.25
56831;BME280;42713;42.676;23.352;2023-08-01T05:58:21;94458.06;;;20.79;59.29
56831;BME280;42713;42.676;23.352;2023-08-01T06:00:46;94453.22;;;20.81;57.35
56831;BME280;42713;42.676;23.352;2023-08-01T06:03:12;94456.84;;;20.77;57.63
56831;BME280;42713;42.676;23.352;2023-08-01T06:05:37;94450.72;;;20.76;57.95
56831;BME280;42713;42.676;23.352;2023-08-01T06:08:05;94452.91;;;20.83;57.52
56831;BME280;42713;42.676;23.352;2023-08-01T06:10:30;94455.88;;;20.90;57.51
56831;BME280;42713;42.676;23.352;2023-08-01T06:12:56;94454.63;;;20.96;57.07
56831;BME280;42713;42.676;23.352;2023-08-01T06:15:22;94453.97;;;20.99;57.43
56831;BME280;42713;42.676;23.352;2023-08-01T06:17:47;94452.75;;;21.06;56.82
56831;BME280;42713;42.676;23.352;2023-08-01T06:20:13;94451.16;;;21.05;55.68
56831;BME280;42713;42.676;23.352;2023-08-01T06:22:39;94456.47;;;21.13;57.08
56831;BME280;42713;42.676;23.352;2023-08-01T06:25:04;94451.00;;;21.19;56.76
56831;BME280;42713;42.676;23.352;2023-08-01T06:27:30;94443.16;;;21.22;55.96
56831;BME280;42713;42.676;23.352;2023-08-01T06:29:55;94447.53;;;21.27;55.83
56831;BME280;42713;42.676;23.352;2023-08-01T06:32:21;94447.84;;;21.25;55.74
56831;BME280;42713;42.676;23.352;2023-08-01T06:34:46;94443.59;;;21.33;56.16
56831;BME280;42713;42.676;23.352;2023-08-01T06:37:12;94441.84;;;21.37;55.91
56831;BME280;42713;42.676;23.352;2023-08-01T06:39:37;94442.47;;;21.43;55.96
56831;BME280;42713;42.676;23.352;2023-08-01T06:42:03;94440.28;;;21.45;55.48
56831;BME280;42713;42.676;23.352;2023-08-01T06:44:28;94438.66;;;21.53;55.92
56831;BME280;42713;42.676;23.352;2023-08-01T06:46:54;94432.72;;;21.56;56.12
56831;BME280;42713;42.676;23.352;2023-08-01T06:49:19;94442.63;;;21.46;55.60
56831;BME280;42713;42.676;23.352;2023-08-01T06:51:45;94441.53;;;21.48;55.70
56831;BME280;42713;42.676;23.352;2023-08-01T06:54:10;94442.75;;;21.50;55.63
56831;BME280;42713;42.676;23.352;2023-08-01T06:56:36;94434.56;;;21.55;55.97
56831;BME280;42713;42.676;23.352;2023-08-01T06:59:01;94441.34;;;21.61;55.83
56831;BME280;42713;42.676;23.352;2023-08-01T07:01:27;94440.84;;;21.68;55.84
56831;BME280;42713;42.676;23.352;2023-08-01T07:03:52;94443.81;;;21.75;55.61
56831;BME280;42713;42.676;23.352;2023-08-01T07:06:18;94438.94;;;21.77;54.63
56831;BME280;42713;42.676;23.352;2023-08-01T07:08:43;94433.75;;;21.81;54.73
56831;BME280;42713;42.676;23.352;2023-08-01T07:11:09;94430.88;;;21.86;54.91
56831;BME280;42713;42.676;23.352;2023-08-01T07:13:34;94431.03;;;21.90;55.41
56831;BME280;42713;42.676;23.352;2023-08-01T07:16:00;94428.94;;;21.96;54.93
56831;BME280;42713;42.676;23.352;2023-08-01T07:18:25;94425.31;;;22.00;54.66
56831;BME280;42713;42.676;23.352;2023-08-01T07:21:01;94430.47;;;22.05;54.17
56831;BME280;42713;42.676;23.352;2023-08-01T07:23:27;94423.78;;;21.99;53.20
56831;BME280;42713;42.676;23.352;2023-08-01T07:25:52;94429.19;;;21.82;53.20
56831;BME280;42713;42.676;23.352;2023-08-01T07:28:18;94419.97;;;21.70;53.31
56831;BME280;42713;42.676;23.352;2023-08-01T07:30:43;94419.19;;;21.70;54.04
56831;BME280;42713;42.676;23.352;2023-08-01T07:33:09;94417.47;;;21.74;54.11
56831;BME280;42713;42.676;23.352;2023-08-01T07:35:34;94419.19;;;21.79;53.74
56831;BME280;42713;42.676;23.352;2023-08-01T07:38:00;94421.47;;;21.89;53.08
56831;BME280;42713;42.676;23.352;2023-08-01T07:40:25;94409.84;;;21.94;53.96
56831;BME280;42713;42.676;23.352;2023-08-01T07:42:51;94413.47;;;21.89;53.09
56831;BME280;42713;42.676;23.352;2023-08-01T07:45:17;94410.81;;;21.89;53.08
56831;BME280;42713;42.676;23.352;2023-08-01T07:47:42;94419.72;;;21.93;52.59
56831;BME280;42713;42.676;23.352;2023-08-01T07:50:08;94425.19;;;21.97;52.92
56831;BME280;42713;42.676;23.352;2023-08-01T07:52:34;94422.34;;;22.02;52.45
56831;BME280;42713;42.676;23.352;2023-08-01T07:54:59;94419.63;;;22.11;52.79
56831;BME280;42713;42.676;23.352;2023-08-01T07:57:25;94419.25;;;22.21;53.41
56831;BME280;42713;42.676;23.352;2023-08-01T07:59:50;94418.09;;;22.31;52.91
56831;BME280;42713;42.676;23.352;2023-08-01T08:02:16;94416.94;;;22.41;52.51
56831;BME280;42713;42.676;23.352;2023-08-01T08:04:41;94410.44;;;22.50;52.59
56831;BME280;42713;42.676;23.352;2023-08-01T08:07:07;94411.47;;;22.58;52.32
56831;BME280;42713;42.676;23.352;2023-08-01T08:09:33;94410.19;;;22.64;51.27
56831;BME280;42713;42.676;23.352;2023-08-01T08:11:58;94406.53;;;22.69;51.93
56831;BME280;42713;42.676;23.352;2023-08-01T08:14:24;94400.00;;;22.79;51.99
56831;BME280;42713;42.676;23.352;2023-08-01T08:16:50;94403.72;;;22.87;51.82
56831;BME280;42713;42.676;23.352;2023-08-01T08:19:16;94396.63;;;22.91;51.65
56831;BME280;42713;42.676;23.352;2023-08-01T08:21:42;94394.94;;;22.98;51.98
56831;BME280;42713;42.676;23.352;2023-08-01T08:24:07;94382.84;;;23.01;51.06
56831;BME280;42713;42.676;23.352;2023-08-01T08:26:32;94378.97;;;23.11;50.67
56831;BME280;42713;42.676;23.352;2023-08-01T08:29:03;94380.31;;;23.17;50.73
56831;BME280;42713;42.676;23.352;2023-08-01T08:31:30;94387.16;;;23.27;50.76
56831;BME280;42713;42.676;23.352;2023-08-01T08:33:56;94383.59;;;23.35;50.92
56831;BME280;42713;42.676;23.352;2023-08-01T08:36:21;94372.03;;;23.43;49.70
56831;BME280;42713;42.676;23.352;2023-08-01T08:38:47;94374.50;;;23.49;49.88
56831;BME280;42713;42.676;23.352;2023-08-01T08:41:20;94373.16;;;23.55;49.50
56831;BME280;42713;42.676;23.352;2023-08-01T08:43:47;94365.25;;;23.58;49.56
56831;BME280;42713;42.676;23.352;2023-08-01T08:46:15;94364.34;;;23.67;49.76
56831;BME280;42713;42.676;23.352;2023-08-01T08:48:41;94355.13;;;23.64;48.07
56831;BME280;42713;42.676;23.352;2023-08-01T08:51:07;94363.25;;;23.68;47.98
56831;BME280;42713;42.676;23.352;2023-08-01T08:53:35;94360.34;;;23.73;48.20
56831;BME280;42713;42.676;23.352;2023-08-01T08:56:01;94359.25;;;23.74;48.25
56831;BME280;42713;42.676;23.352;2023-08-01T08:58:29;94356.56;;;23.74;49.36
56831;BME280;42713;42.676;23.352;2023-08-01T09:00:55;94349.88;;;23.80;48.88
56831;BME280;42713;42.676;23.352;2023-08-01T09:03:21;94355.13;;;23.89;48.57
56831;BME280;42713;42.676;23.352;2023-08-01T09:05:51;94347.97;;;23.93;48.44
56831;BME280;42713;42.676;23.352;2023-08-01T09:08:21;94346.09;;;23.93;46.47
56831;BME280;42713;42.676;23.352;2023-08-01T09:10:47;94342.75;;;23.97;45.94
56831;BME280;42713;42.676;23.352;2023-08-01T09:13:16;94340.88;;;23.97;46.58
56831;BME280;42713;42.676;23.352;2023-08-01T09:15:42;94335.16;;;23.99;47.57
56831;BME280;42713;42.676;23.352;2023-08-01T09:18:10;94331.47;;;24.03;47.96
56831;BME280;42713;42.676;23.352;2023-08-01T09:20:49;94332.47;;;24.11;47.50
56831;BME280;42713;42.676;23.352;2023-08-01T09:23:16;94330.53;;;24.24;47.42
56831;BME280;42713;42.676;23.352;2023-08-01T09:25:43;94327.75;;;24.33;46.76
56831;BME280;42713;42.676;23.352;2023-08-01T09:30:49;94322.22;;;24.42;45.81
56831;BME280;42713;42.676;23.352;2023-08-01T09:33:16;94332.44;;;24.52;46.12
56831;BME280;42713;42.676;23.352;2023-08-01T09:35:41;94324.97;;;24.58;46.36
56831;BME280;42713;42.676;23.352;2023-08-01T09:38:08;94319.22;;;24.71;46.55
56831;BME280;42713;42.676;23.352;2023-08-01T09:40:38;94326.78;;;24.82;46.43
56831;BME280;42713;42.676;23.352;2023-08-01T09:43:03;94320.16;;;24.92;46.30
56831;BME280;42713;42.676;23.352;2023-08-01T09:45:29;94314.53;;;24.97;46.14
56831;BME280;42713;42.676;23.352;2023-08-01T09:47:55;94311.59;;;25.02;45.32
56831;BME280;42713;42.676;23.352;2023-08-01T09:50:22;94313.25;;;25.07;44.71
56831;BME280;42713;42.676;23.352;2023-08-01T09:52:48;94305.38;;;25.14;44.79
56831;BME280;42713;42.676;23.352;2023-08-01T09:55:32;94306.34;;;25.22;44.75
56831;BME280;42713;42.676;23.352;2023-08-01T09:57:59;94299.59;;;25.28;44.45
56831;BME280;42713;42.676;23.352;2023-08-01T10:00:26;94293.19;;;25.32;44.73
56831;BME280;42713;42.676;23.352;2023-08-01T10:03:00;94288.25;;;25.35;45.04
56831;BME280;42713;42.676;23.352;2023-08-01T10:05:31;94287.69;;;25.41;43.01
56831;BME280;42713;42.676;23.352;2023-08-01T10:08:02;94283.84;;;25.42;43.30
56831;BME280;42713;42.676;23.352;2023-08-01T10:10:33;94275.28;;;25.37;43.25
56831;BME280;42713;42.676;23.352;2023-08-01T10:13:07;94273.66;;;25.32;43.83
56831;BME280;42713;42.676;23.352;2023-08-01T10:15:44;94255.50;;;25.25;44.80
56831;BME280;42713;42.676;23.352;2023-08-01T10:18:16;94260.56;;;25.30;44.65
56831;BME280;42713;42.676;23.352;2023-08-01T10:21:07;94266.63;;;25.43;44.23
56831;BME280;42713;42.676;23.352;2023-08-01T10:23:34;94260.94;;;25.45;42.87
56831;BME280;42713;42.676;23.352;2023-08-01T10:26:01;94247.00;;;25.39;43.26
56831;BME280;42713;42.676;23.352;2023-08-01T10:28:35;94256.16;;;25.38;43.13
56831;BME280;42713;42.676;23.352;2023-08-01T10:31:15;94246.56;;;25.37;43.20
56831;BME280;42713;42.676;23.352;2023-08-01T10:34:13;94245.56;;;25.42;43.92
56831;BME280;42713;42.676;23.352;2023-08-01T10:36:39;94246.50;;;25.50;43.51
56831;BME280;42713;42.676;23.352;2023-08-01T10:39:04;94247.41;;;25.57;42.73
56831;BME280;42713;42.676;23.352;2023-08-01T10:41:34;94245.16;;;25.59;42.03
56831;BME280;42713;42.676;23.352;2023-08-01T10:44:14;94240.09;;;25.54;41.99
56831;BME280;42713;42.676;23.352;2023-08-01T10:46:46;94238.59;;;25.57;41.57
56831;BME280;42713;42.676;23.352;2023-08-01T10:49:13;94232.25;;;25.65;42.45
56831;BME280;42713;42.676;23.352;2023-08-01T10:51:39;94227.03;;;25.72;41.78
56831;BME280;42713;42.676;23.352;2023-08-01T10:54:04;94230.16;;;25.74;41.57
56831;BME280;42713;42.676;23.352;2023-08-01T10:56:31;94233.56;;;25.71;41.03
56831;BME280;42713;42.676;23.352;2023-08-01T10:58:57;94226.72;;;25.74;41.01
56831;BME280;42713;42.676;23.352;2023-08-01T11:01:23;94233.41;;;25.84;41.26
56831;BME280;42713;42.676;23.352;2023-08-01T11:03:49;94219.00;;;25.92;41.99
56831;BME280;42713;42.676;23.352;2023-08-01T11:06:15;94223.13;;;26.05;42.31
56831;BME280;42713;42.676;23.352;2023-08-01T11:08:41;94218.88;;;26.04;41.23
56831;BME280;42713;42.676;23.352;2023-08-01T11:11:13;94210.13;;;26.07;40.79
56831;BME280;42713;42.676;23.352;2023-08-01T11:13:39;94200.22;;;26.31;40.39
56831;BME280;42713;42.676;23.352;2023-08-01T11:16:06;94206.53;;;26.62;40.20
56831;BME280;42713;42.676;23.352;2023-08-01T11:18:44;94194.84;;;26.97;39.70
56831;BME280;42713;42.676;23.352;2023-08-01T11:21:10;94181.09;;;27.29;38.69
56831;BME280;42713;42.676;23.352;2023-08-01T11:23:36;94190.28;;;27.52;37.00
56831;BME280;42713;42.676;23.352;2023-08-01T11:26:07;94188.63;;;27.74;37.52
56831;BME280;42713;42.676;23.352;2023-08-01T11:28:35;94183.91;;;27.98;37.39
56831;BME280;42713;42.676;23.352;2023-08-01T11:31:00;94190.41;;;28.27;36.91
56831;BME280;42713;42.676;23.352;2023-08-01T11:33:26;94175.97;;;28.46;36.28
56831;BME280;42713;42.676;23.352;2023-08-01T11:35:52;94175.38;;;28.64;35.50
56831;BME280;42713;42.676;23.352;2023-08-01T11:38:22;94172.88;;;28.85;35.60
56831;BME280;42713;42.676;23.352;2023-08-01T11:40:50;94168.00;;;29.02;35.07
56831;BME280;42713;42.676;23.352;2023-08-01T11:43:15;94170.78;;;29.13;35.15
56831;BME280;42713;42.676;23.352;2023-08-01T11:45:51;94170.06;;;29.23;35.17
56831;BME280;42713;42.676;23.352;2023-08-01T11:48:17;94160.44;;;29.22;34.07
56831;BME280;42713;42.676;23.352;2023-08-01T11:50:44;94152.75;;;29.28;34.52
56831;BME280;42713;42.676;23.352;2023-08-01T11:53:20;94151.28;;;29.34;35.05
56831;BME280;42713;42.676;23.352;2023-08-01T11:55:45;94159.03;;;29.43;34.67
56831;BME280;42713;42.676;23.352;2023-08-01T11:58:11;94154.06;;;29.48;34.34
56831;BME280;42713;42.676;23.352;2023-08-01T12:00:39;94151.00;;;29.54;34.62
56831;BME280;42713;42.676;23.352;2023-08-01T12:03:10;94144.09;;;29.56;34.67
56831;BME280;42713;42.676;23.352;2023-08-01T12:05:40;94128.63;;;29.49;34.39
56831;BME280;42713;42.676;23.352;2023-08-01T12:08:13;94131.66;;;29.37;33.30
56831;BME280;42713;42.676;23.352;2023-08-01T12:10:41;94135.88;;;29.34;33.40
56831;BME280;42713;42.676;23.352;2023-08-01T12:13:19;94127.03;;;29.34;34.20
56831;BME280;42713;42.676;23.352;2023-08-01T12:15:49;94124.69;;;29.36;34.17
56831;BME280;42713;42.676;23.352;2023-08-01T12:18:22;94124.34;;;29.41;34.33
56831;BME280;42713;42.676;23.352;2023-08-01T12:20:48;94117.03;;;29.42;34.32
56831;BME280;42713;42.676;23.352;2023-08-01T12:23:13;94115.53;;;29.55;35.01
56831;BME280;42713;42.676;23.352;2023-08-01T12:25:39;94118.66;;;29.61;38.27
56831;BME280;42713;42.676;23.352;2023-08-01T12:28:04;94120.22;;;29.69;39.62
56831;BME280;42713;42.676;23.352;2023-08-01T12:30:30;94119.06;;;29.70;38.43
56831;BME280;42713;42.676;23.352;2023-08-01T12:32:59;94109.44;;;29.73;36.10
56831;BME280;42713;42.676;23.352;2023-08-01T12:35:28;94113.69;;;29.74;38.33
56831;BME280;42713;42.676;23.352;2023-08-01T12:37:53;94099.44;;;29.73;36.05
56831;BME280;42713;42.676;23.352;2023-08-01T12:40:21;94105.22;;;29.79;36.05
56831;BME280;42713;42.676;23.352;2023-08-01T12:42:47;94102.91;;;29.77;33.21
56831;BME280;42713;42.676;23.352;2023-08-01T12:45:16;94107.94;;;29.83;36.84
56831;BME280;42713;42.676;23.352;2023-08-01T12:47:41;94107.16;;;29.86;36.38
56831;BME280;42713;42.676;23.352;2023-08-01T12:50:07;94107.59;;;29.95;37.18